sensor_id;sensor_type;location;lat;lon;timestamp;temperature;humidity
49148;DHT22;41980;45.550;12.070;2023-03-03T00:04:08;6.60;69.10
49148;DHT22;41980;45.550;12.070;2023-03-03T00:10:11;6.60;69.10
49148;DHT22;41980;45.550;12.070;2023-03-03T00:28:31;6.50;69.10
49148;DHT22;41980;45.550;12.070;2023-03-03T00:34:37;6.40;69.20
49148;DHT22;41980;45.550;12.070;2023-03-03T00:40:39;6.40;69.20
49148;DHT22;41980;45.550;12.070;2023-03-03T00:46:41;6.30;69.30
49148;DHT22;41980;45.550;12.070;2023-03-03T00:52:45;6.30;69.70
49148;DHT22;41980;45.550;12.070;2023-03-03T00:58:49;6.30;72.20
49148;DHT22;41980;45.550;12.070;2023-03-03T01:04:54;6.30;69.90
49148;DHT22;41980;45.550;12.070;2023-03-03T01:11:02;6.20;69.20
49148;DHT22;41980;45.550;12.070;2023-03-03T01:17:05;6.20;69.20
49148;DHT22;41980;45.550;12.070;2023-03-03T01:23:07;6.10;69.60
49148;DHT22;41980;45.550;12.070;2023-03-03T01:29:09;6.00;69.80
49148;DHT22;41980;45.550;12.070;2023-03-03T01:35:11;6.00;69.80
49148;DHT22;41980;45.550;12.070;2023-03-03T01:41:13;5.90;69.70
49148;DHT22;41980;45.550;12.070;2023-03-03T01:53:26;5.90;69.70
49148;DHT22;41980;45.550;12.070;2023-03-03T01:59:33;5.90;69.60
49148;DHT22;41980;45.550;12.070;2023-03-03T02:05:37;5.90;69.50
49148;DHT22;41980;45.550;12.070;2023-03-03T02:11:44;5.80;69.80
49148;DHT22;41980;45.550;12.070;2023-03-03T02:17:48;5.70;70.00
49148;DHT22;41980;45.550;12.070;2023-03-03T02:29:57;5.60;70.60
49148;DHT22;41980;45.550;12.070;2023-03-03T02:36:14;5.50;70.30
49148;DHT22;41980;45.550;12.070;2023-03-03T02:42:20;5.60;70.30
49148;DHT22;41980;45.550;12.070;2023-03-03T02:48:28;5.60;70.30
49148;DHT22;41980;45.550;12.070;2023-03-03T02:54:30;5.60;70.20
49148;DHT22;41980;45.550;12.070;2023-03-03T03:00:34;5.60;70.10
49148;DHT22;41980;45.550;12.070;2023-03-03T03:06:36;5.60;70.30
49148;DHT22;41980;45.550;12.070;2023-03-03T03:12:38;5.60;70.20
49148;DHT22;41980;45.550;12.070;2023-03-03T03:18:40;5.60;70.00
49148;DHT22;41980;45.550;12.070;2023-03-03T03:24:42;5.60;70.30
49148;DHT22;41980;45.550;12.070;2023-03-03T03:30:44;5.60;70.10
49148;DHT22;41980;45.550;12.070;2023-03-03T03:36:47;5.70;71.80
49148;DHT22;41980;45.550;12.070;2023-03-03T03:42:52;5.60;70.50
49148;DHT22;41980;45.550;12.070;2023-03-03T03:48:54;5.60;70.30
49148;DHT22;41980;45.550;12.070;2023-03-03T03:54:56;5.60;70.30
49148;DHT22;41980;45.550;12.070;2023-03-03T04:01:05;5.50;70.00
49148;DHT22;41980;45.550;12.070;2023-03-03T04:07:10;5.50;70.00
49148;DHT22;41980;45.550;12.070;2023-03-03T04:13:12;5.50;70.10
49148;DHT22;41980;45.550;12.070;2023-03-03T04:19:14;5.50;71.00
49148;DHT22;41980;45.550;12.070;2023-03-03T04:25:18;5.50;70.30
49148;DHT22;41980;45.550;12.070;2023-03-03T04:31:21;5.40;70.20
49148;DHT22;41980;45.550;12.070;2023-03-03T04:37:24;5.40;70.20
49148;DHT22;41980;45.550;12.070;2023-03-03T04:43:26;5.30;70.70
49148;DHT22;41980;45.550;12.070;2023-03-03T04:49:29;5.20;71.00
49148;DHT22;41980;45.550;12.070;2023-03-03T04:55:34;5.10;71.00
49148;DHT22;41980;45.550;12.070;2023-03-03T05:01:37;5.00;71.40
49148;DHT22;41980;45.550;12.070;2023-03-03T05:07:40;4.80;71.80
49148;DHT22;41980;45.550;12.070;2023-03-03T05:13:42;4.70;71.90
49148;DHT22;41980;45.550;12.070;2023-03-03T05:19:43;4.80;71.90
49148;DHT22;41980;45.550;12.070;2023-03-03T05:25:47;4.80;71.70
49148;DHT22;41980;45.550;12.070;2023-03-03T05:31:49;4.80;71.70
49148;DHT22;41980;45.550;12.070;2023-03-03T05:37:51;4.80;71.90
49148;DHT22;41980;45.550;12.070;2023-03-03T05:43:53;4.80;71.90
49148;DHT22;41980;45.550;12.070;2023-03-03T05:49:55;4.80;71.90
49148;DHT22;41980;45.550;12.070;2023-03-03T05:55:57;4.80;71.90
49148;DHT22;41980;45.550;12.070;2023-03-03T06:01:59;4.80;72.30
49148;DHT22;41980;45.550;12.070;2023-03-03T06:08:01;4.70;72.40
49148;DHT22;41980;45.550;12.070;2023-03-03T06:14:03;4.70;72.40
49148;DHT22;41980;45.550;12.070;2023-03-03T06:20:06;4.90;72.20
49148;DHT22;41980;45.550;12.070;2023-03-03T06:26:08;5.00;72.40
49148;DHT22;41980;45.550;12.070;2023-03-03T06:32:10;5.00;72.30
49148;DHT22;41980;45.550;12.070;2023-03-03T06:38:12;5.20;72.30
49148;DHT22;41980;45.550;12.070;2023-03-03T06:44:14;5.30;72.40
49148;DHT22;41980;45.550;12.070;2023-03-03T06:50:19;5.40;72.10
49148;DHT22;41980;45.550;12.070;2023-03-03T06:56:23;5.70;71.90
49148;DHT22;41980;45.550;12.070;2023-03-03T07:02:25;6.00;71.40
49148;DHT22;41980;45.550;12.070;2023-03-03T07:08:29;6.50;72.00
49148;DHT22;41980;45.550;12.070;2023-03-03T07:14:33;9.40;72.40
49148;DHT22;41980;45.550;12.070;2023-03-03T07:20:38;12.60;69.00
49148;DHT22;41980;45.550;12.070;2023-03-03T07:26:40;14.80;65.80
49148;DHT22;41980;45.550;12.070;2023-03-03T07:32:45;16.20;63.20
49148;DHT22;41980;45.550;12.070;2023-03-03T07:38:53;17.10;62.70
49148;DHT22;41980;45.550;12.070;2023-03-03T07:44:58;15.50;63.10
49148;DHT22;41980;45.550;12.070;2023-03-03T07:51:11;13.10;65.30
49148;DHT22;41980;45.550;12.070;2023-03-03T07:57:20;11.40;66.80
49148;DHT22;41980;45.550;12.070;2023-03-03T08:03:23;10.40;67.90
49148;DHT22;41980;45.550;12.070;2023-03-03T08:15:36;9.90;68.40
49148;DHT22;41980;45.550;12.070;2023-03-03T08:21:38;9.80;68.10
49148;DHT22;41980;45.550;12.070;2023-03-03T08:27:41;9.90;67.80
49148;DHT22;41980;45.550;12.070;2023-03-03T08:33:44;10.00;67.40
49148;DHT22;41980;45.550;12.070;2023-03-03T08:39:47;10.20;66.90
49148;DHT22;41980;45.550;12.070;2023-03-03T08:45:49;10.50;66.70
49148;DHT22;41980;45.550;12.070;2023-03-03T08:51:52;10.70;66.00
49148;DHT22;41980;45.550;12.070;2023-03-03T08:57:55;11.00;66.20
49148;DHT22;41980;45.550;12.070;2023-03-03T09:03:57;11.30;66.00
49148;DHT22;41980;45.550;12.070;2023-03-03T09:09:59;11.50;65.60
49148;DHT22;41980;45.550;12.070;2023-03-03T09:16:01;11.80;64.90
49148;DHT22;41980;45.550;12.070;2023-03-03T09:22:21;12.30;65.30
49148;DHT22;41980;45.550;12.070;2023-03-03T09:28:25;14.60;65.90
49148;DHT22;41980;45.550;12.070;2023-03-03T09:46:52;16.10;61.70
49148;DHT22;41980;45.550;12.070;2023-03-03T10:05:17;16.40;61.60
49148;DHT22;41980;45.550;12.070;2023-03-03T10:11:28;16.60;61.70
49148;DHT22;41980;45.550;12.070;2023-03-03T10:54:31;17.70;55.50
49148;DHT22;41980;45.550;12.070;2023-03-03T11:31:20;15.80;52.60
49148;DHT22;41980;45.550;12.070;2023-03-03T11:43:39;15.60;54.00
49148;DHT22;41980;45.550;12.070;2023-03-03T11:49:52;15.50;52.50
49148;DHT22;41980;45.550;12.070;2023-03-03T11:56:03;15.50;54.50
49148;DHT22;41980;45.550;12.070;2023-03-03T12:20:42;15.20;54.00
49148;DHT22;41980;45.550;12.070;2023-03-03T12:26:58;15.20;52.80
49148;DHT22;41980;45.550;12.070;2023-03-03T12:45:22;15.10;53.70
49148;DHT22;41980;45.550;12.070;2023-03-03T13:16:11;14.80;54.40
49148;DHT22;41980;45.550;12.070;2023-03-03T14:05:14;14.70;53.80
49148;DHT22;41980;45.550;12.070;2023-03-03T14:29:41;14.40;54.70
49148;DHT22;41980;45.550;12.070;2023-03-03T14:41:54;14.50;54.80
49148;DHT22;41980;45.550;12.070;2023-03-03T14:47:59;14.50;54.30
49148;DHT22;41980;45.550;12.070;2023-03-03T15:06:29;14.50;55.10
49148;DHT22;41980;45.550;12.070;2023-03-03T15:24:56;14.40;54.50
49148;DHT22;41980;45.550;12.070;2023-03-03T15:31:07;14.20;53.50
49148;DHT22;41980;45.550;12.070;2023-03-03T15:43:27;14.10;54.80
49148;DHT22;41980;45.550;12.070;2023-03-03T15:49:52;13.90;54.60
49148;DHT22;41980;45.550;12.070;2023-03-03T16:02:13;13.50;55.50
49148;DHT22;41980;45.550;12.070;2023-03-03T16:08:22;13.40;55.60
49148;DHT22;41980;45.550;12.070;2023-03-03T16:57:31;12.60;57.00
49148;DHT22;41980;45.550;12.070;2023-03-03T17:09:57;12.20;57.40
49148;DHT22;41980;45.550;12.070;2023-03-03T17:46:49;11.00;60.40
49148;DHT22;41980;45.550;12.070;2023-03-03T18:17:33;10.50;60.40
49148;DHT22;41980;45.550;12.070;2023-03-03T18:23:38;10.50;60.30
49148;DHT22;41980;45.550;12.070;2023-03-03T18:36:13;10.30;60.70
49148;DHT22;41980;45.550;12.070;2023-03-03T18:48:45;10.30;61.60
49148;DHT22;41980;45.550;12.070;2023-03-03T19:01:04;10.30;61.50
49148;DHT22;41980;45.550;12.070;2023-03-03T19:19:29;10.20;61.70
49148;DHT22;41980;45.550;12.070;2023-03-03T19:25:35;10.20;61.80
49148;DHT22;41980;45.550;12.070;2023-03-03T19:31:43;10.10;61.90
49148;DHT22;41980;45.550;12.070;2023-03-03T19:56:20;9.70;62.10
49148;DHT22;41980;45.550;12.070;2023-03-03T20:14:47;9.40;62.30
49148;DHT22;41980;45.550;12.070;2023-03-03T20:20:59;9.40;63.60
49148;DHT22;41980;45.550;12.070;2023-03-03T20:27:13;9.30;63.30
49148;DHT22;41980;45.550;12.070;2023-03-03T20:51:45;8.90;63.60
49148;DHT22;41980;45.550;12.070;2023-03-03T21:10:14;8.70;63.90
49148;DHT22;41980;45.550;12.070;2023-03-03T21:22:23;8.70;64.10
49148;DHT22;41980;45.550;12.070;2023-03-03T21:28:28;8.70;64.90
49148;DHT22;41980;45.550;12.070;2023-03-03T21:40:39;8.50;64.40
49148;DHT22;41980;45.550;12.070;2023-03-03T21:46:41;8.40;64.50
49148;DHT22;41980;45.550;12.070;2023-03-03T21:52:43;8.40;65.10
49148;DHT22;41980;45.550;12.070;2023-03-03T21:58:44;8.30;65.40
49148;DHT22;41980;45.550;12.070;2023-03-03T22:04:46;8.20;66.30
49148;DHT22;41980;45.550;12.070;2023-03-03T22:10:49;8.20;65.90
49148;DHT22;41980;45.550;12.070;2023-03-03T22:16:55;8.20;65.30
49148;DHT22;41980;45.550;12.070;2023-03-03T22:22:58;8.30;65.20
49148;DHT22;41980;45.550;12.070;2023-03-03T22:29:00;8.40;65.10
49148;DHT22;41980;45.550;12.070;2023-03-03T22:35:02;8.30;65.10
49148;DHT22;41980;45.550;12.070;2023-03-03T22:41:04;8.20;65.50
49148;DHT22;41980;45.550;12.070;2023-03-03T22:47:05;8.10;67.50
49148;DHT22;41980;45.550;12.070;2023-03-03T22:53:08;8.00;66.70
49148;DHT22;41980;45.550;12.070;2023-03-03T22:59:10;7.90;66.40
49148;DHT22;41980;45.550;12.070;2023-03-03T23:05:11;7.80;66.30
49148;DHT22;41980;45.550;12.070;2023-03-03T23:11:13;7.80;66.40
49148;DHT22;41980;45.550;12.070;2023-03-03T23:17:15;7.70;66.40
49148;DHT22;41980;45.550;12.070;2023-03-03T23:23:17;7.80;66.70
49148;DHT22;41980;45.550;12.070;2023-03-03T23:29:19;7.80;66.60
49148;DHT22;41980;45.550;12.070;2023-03-03T23:35:21;7.80;66.50
49148;DHT22;41980;45.550;12.070;2023-03-03T23:41:23;7.80;67.00
49148;DHT22;41980;45.550;12.070;2023-03-03T23:47:25;7.80;67.10
49148;DHT22;41980;45.550;12.070;2023-03-03T23:53:28;7.80;66.90
49148;DHT22;41980;45.550;12.070;2023-03-03T23:59:30;7.70;66.60
